Time;durP1;ratioP1;P1;durP2;ratioP2;P2;SDS_P1;SDS_P2;PMS_P1;PMS_P2;Temp;Humidity;BMP_temperature;BMP_pressure;BME280_temperature;BME280_humidity;BME280_pressure;Samples;Min_cycle;Max_cycle;Signal;HPM_P1;HPM_P2
2022/12/14 00:00:47;;;;;;;11.45;7.78;;;;;;;20.38;31.01;100729.22;5068037;28;20486;-73
2022/12/14 00:03:13;;;;;;;12.75;7.65;;;;;;;20.42;30.87;100717.28;5070068;28;20032;-73
2022/12/14 00:05:40;;;;;;;11.23;7.85;;;;;;;20.40;30.79;100721.91;5070109;28;20064;-73
2022/12/14 00:08:05;;;;;;;11.10;7.80;;;;;;;20.40;30.98;100725.38;5071143;28;20044;-72
2022/12/14 00:10:32;;;;;;;10.48;7.45;;;;;;;20.44;30.86;100729.31;5072091;28;21616;-73
2022/12/14 00:12:58;;;;;;;11.32;7.63;;;;;;;20.36;31.04;100716.19;5071450;28;20040;-73
2022/12/14 00:15:24;;;;;;;11.13;7.25;;;;;;;20.39;30.98;100718.44;5071896;28;20358;-72
2022/12/14 00:17:50;;;;;;;10.77;7.30;;;;;;;20.32;30.95;100717.56;5074210;28;20059;-73
2022/12/14 00:20:16;;;;;;;9.70;7.00;;;;;;;20.24;31.10;100715.00;5073588;28;20860;-73
2022/12/14 00:22:41;;;;;;;12.63;7.50;;;;;;;20.32;31.08;100714.09;5074258;28;20048;-73
2022/12/14 00:25:07;;;;;;;11.50;7.82;;;;;;;20.28;31.04;100724.19;5071009;28;20038;-73
2022/12/14 00:27:32;;;;;;;12.77;7.38;;;;;;;20.27;31.19;100719.91;5071579;28;20068;-72
2022/12/14 00:29:58;;;;;;;12.63;8.20;;;;;;;20.18;31.19;100703.34;5055693;28;20044;-73
2022/12/14 00:32:23;;;;;;;12.00;7.80;;;;;;;20.26;31.08;100697.13;5073823;28;20031;-73
2022/12/14 00:34:49;;;;;;;10.90;7.60;;;;;;;20.16;31.19;100697.44;5074074;28;20059;-73
2022/12/14 00:37:15;;;;;;;10.32;7.88;;;;;;;20.20;31.04;100687.31;5069410;28;20047;-73
2022/12/14 00:39:41;;;;;;;11.02;7.60;;;;;;;20.22;31.22;100694.03;5070759;28;20039;-73
2022/12/14 00:42:06;;;;;;;10.82;7.88;;;;;;;20.20;31.00;100687.31;5073874;28;20401;-73
2022/12/14 00:44:32;;;;;;;11.68;7.78;;;;;;;20.14;31.29;100694.16;5074369;28;20041;-73
2022/12/14 00:46:58;;;;;;;12.10;7.78;;;;;;;20.22;31.18;100686.13;5073142;28;20402;-73
2022/12/14 00:49:23;;;;;;;11.63;7.97;;;;;;;20.25;31.06;100684.09;5075386;28;20044;-73
2022/12/14 00:51:49;;;;;;;12.73;7.97;;;;;;;20.19;31.05;100686.50;5072996;28;20048;-73
2022/12/14 00:54:15;;;;;;;11.88;7.32;;;;;;;20.13;30.95;100675.84;5072976;28;20056;-72
2022/12/14 00:56:40;;;;;;;12.18;8.02;;;;;;;20.22;30.98;100674.72;5072476;28;20359;-72
2022/12/14 00:59:06;;;;;;;13.65;7.38;;;;;;;20.18;31.06;100676.91;5070078;28;20043;-72
2022/12/14 01:01:31;;;;;;;13.82;7.72;;;;;;;20.16;31.06;100670.19;5073406;28;20047;-72
2022/12/14 01:04:15;;;;;;;13.52;8.15;;;;;;;20.19;30.93;100661.88;5066632;28;20177;-72
2022/12/14 01:06:45;;;;;;;11.32;7.78;;;;;;;20.15;31.20;100665.91;5074700;28;20036;-72
2022/12/14 01:09:12;;;;;;;14.60;8.60;;;;;;;20.12;31.18;100663.63;5073080;28;20071;-72
2022/12/14 01:11:38;;;;;;;13.18;8.32;;;;;;;20.05;31.23;100668.81;5071062;28;20128;-72
2022/12/14 01:14:04;;;;;;;9.85;7.63;;;;;;;20.12;31.10;100661.81;5073689;28;20728;-72
2022/12/14 01:16:30;;;;;;;10.88;7.50;;;;;;;20.10;31.12;100662.97;5075856;28;20104;-72
2022/12/14 01:18:58;;;;;;;10.75;7.32;;;;;;;20.01;31.16;100658.81;5072443;28;20056;-72
2022/12/14 01:21:25;;;;;;;10.55;7.50;;;;;;;20.07;31.13;100658.06;5074120;28;20041;-72
2022/12/14 01:23:53;;;;;;;11.80;7.55;;;;;;;20.02;31.26;100657.81;5074438;28;20056;-73
2022/12/14 01:26:19;;;;;;;11.70;8.18;;;;;;;20.02;31.35;100657.81;5070511;28;20028;-72
2022/12/14 01:28:46;;;;;;;10.63;7.53;;;;;;;20.02;31.14;100658.63;5077795;28;20041;-72
2022/12/14 01:31:18;;;;;;;11.93;7.88;;;;;;;20.04;31.31;100658.44;5074019;28;20039;-72
2022/12/14 01:33:44;;;;;;;11.85;8.05;;;;;;;20.08;31.17;100649.94;5075653;28;20036;-73
2022/12/14 01:36:15;;;;;;;12.90;8.40;;;;;;;20.05;31.17;100642.38;5075157;28;20046;-72
2022/12/14 01:38:42;;;;;;;12.50;8.20;;;;;;;19.96;31.30;100648.81;5076694;28;20056;-72
2022/12/14 01:41:23;;;;;;;11.88;7.70;;;;;;;20.03;31.11;100646.22;5075449;28;20082;-72
2022/12/14 01:43:50;;;;;;;11.30;7.57;;;;;;;19.85;31.53;100650.06;5077652;28;20394;-72
2022/12/14 01:46:26;;;;;;;11.95;7.82;;;;;;;19.99;31.28;100644.97;5076194;28;20068;-72
2022/12/14 01:48:57;;;;;;;12.13;8.25;;;;;;;20.00;30.91;100651.88;5077664;28;20028;-72
2022/12/14 01:51:25;;;;;;;11.40;7.80;;;;;;;20.00;31.14;100643.97;5082178;28;20762;-73
2022/12/14 01:53:52;;;;;;;11.20;7.55;;;;;;;19.94;31.13;100642.06;5081343;28;20101;-72
2022/12/14 01:56:17;;;;;;;11.23;7.35;;;;;;;19.94;31.27;100642.88;5072965;28;20039;-72
2022/12/14 01:58:43;;;;;;;11.75;7.70;;;;;;;19.96;31.17;100637.41;5073956;28;20510;-72
2022/12/14 02:01:10;;;;;;;10.18;7.05;;;;;;;19.88;31.38;100633.84;5073033;27;20390;-72
2022/12/14 02:03:50;;;;;;;10.13;7.25;;;;;;;19.91;31.22;100632.66;5075470;28;20048;-72
2022/12/14 02:06:34;;;;;;;10.80;7.22;;;;;;;19.89;31.27;100627.56;5073057;28;20032;-72
2022/12/14 02:09:03;;;;;;;11.77;8.10;;;;;;;19.87;31.29;100626.09;5068947;28;20040;-72
2022/12/14 02:11:48;;;;;;;11.07;8.27;;;;;;;19.85;31.30;100620.19;5072418;28;20036;-72
2022/12/14 02:14:14;;;;;;;11.35;8.35;;;;;;;19.80;31.47;100618.09;5070942;28;20035;-72
2022/12/14 02:16:48;;;;;;;11.73;7.68;;;;;;;19.86;31.30;100616.53;5070858;28;20102;-72
2022/12/14 02:19:13;;;;;;;12.77;8.05;;;;;;;19.86;31.31;100616.53;5073991;28;20044;-72
2022/12/14 02:21:57;;;;;;;10.90;7.65;;;;;;;19.88;31.21;100619.81;5073219;28;20032;-72
2022/12/14 02:25:00;;;;;;;13.45;8.02;;;;;;;19.83;31.30;100624.84;5071998;28;20122;-72
2022/12/14 02:28:08;;;;;;;10.52;6.97;;;;;;;19.83;31.21;100619.56;5072007;28;20044;-72
2022/12/14 02:30:39;;;;;;;11.50;7.65;;;;;;;19.90;31.19;100623.91;5041650;28;20343;-72
2022/12/14 02:33:23;;;;;;;12.25;8.10;;;;;;;19.82;31.31;100623.22;5074606;28;20032;-72
2022/12/14 02:36:04;;;;;;;11.48;7.68;;;;;;;19.84;31.32;100618.56;5070631;28;20153;-72
2022/12/14 02:38:52;;;;;;;11.13;8.30;;;;;;;19.75;31.32;100620.50;5069503;28;20063;-72
2022/12/14 02:41:37;;;;;;;11.77;8.77;;;;;;;19.81;31.22;100611.00;5070307;28;20081;-72
2022/12/14 02:44:17;;;;;;;11.77;7.68;;;;;;;19.76;31.30;100611.56;5072955;28;20930;-72
2022/12/14 02:47:02;;;;;;;13.32;8.30;;;;;;;19.84;31.23;100616.72;5071142;28;20080;-72
2022/12/14 02:49:30;;;;;;;11.93;8.27;;;;;;;19.80;31.22;100609.38;5071066;28;20048;-72
2022/12/14 02:52:07;;;;;;;13.20;8.40;;;;;;;19.76;31.23;100603.63;5071495;28;20075;-72
2022/12/14 02:54:51;;;;;;;10.38;7.15;;;;;;;19.71;31.33;100603.34;5071060;28;20044;-72
2022/12/14 02:57:59;;;;;;;12.90;7.35;;;;;;;19.73;31.32;100606.63;5068691;28;20769;-72
2022/12/14 03:00:28;;;;;;;12.70;8.55;;;;;;;19.82;31.20;100604.72;5060654;28;20052;-72
2022/12/14 03:02:54;;;;;;;10.98;7.60;;;;;;;19.72;31.34;100599.69;5075278;28;20130;-72
2022/12/14 03:05:20;;;;;;;12.05;7.97;;;;;;;19.78;31.13;100595.53;5066736;28;22726;-71
2022/12/14 03:07:47;;;;;;;11.88;7.50;;;;;;;19.72;31.20;100583.84;5068302;28;20032;-72
2022/12/14 03:10:47;;;;;;;11.40;7.88;;;;;;;19.74;31.24;100579.19;5071427;28;20371;-72
2022/12/14 03:13:29;;;;;;;10.43;7.95;;;;;;;19.64;31.15;100577.84;5073654;28;20059;-73
2022/12/14 03:16:04;;;;;;;13.15;8.70;;;;;;;19.63;31.31;100574.41;5070300;28;20028;-72
2022/12/14 03:18:36;;;;;;;11.48;8.00;;;;;;;19.57;31.65;100557.47;5070930;28;20135;-71
2022/12/14 03:21:04;;;;;;;10.82;7.97;;;;;;;19.68;31.29;100572.03;5067276;28;20048;-71
2022/12/14 03:23:34;;;;;;;9.88;7.35;;;;;;;19.70;31.23;100567.38;5070273;28;20688;-72
2022/12/14 03:26:25;;;;;;;11.85;8.45;;;;;;;19.71;31.23;100562.91;5074727;28;20084;-72
2022/12/14 03:28:59;;;;;;;13.10;8.35;;;;;;;19.62;31.26;100564.84;5071645;28;20468;-72
2022/12/14 03:31:53;;;;;;;11.30;7.35;;;;;;;19.55;31.34;100559.47;5075579;28;20035;-72
2022/12/14 03:34:24;;;;;;;11.98;7.88;;;;;;;19.70;31.25;100567.38;5071686;28;20071;-72
2022/12/14 03:36:55;;;;;;;12.10;7.50;;;;;;;19.60;31.36;100570.31;5074616;28;20470;-71
2022/12/14 03:39:29;;;;;;;11.60;8.00;;;;;;;19.72;31.21;100569.81;5074688;28;20040;-72
2022/12/14 03:42:06;;;;;;;10.48;7.57;;;;;;;19.65;31.14;100563.66;5079237;28;20039;-72
2022/12/14 03:44:37;;;;;;;12.18;7.63;;;;;;;19.71;31.13;100565.53;5078795;28;20036;-72
2022/12/14 03:47:15;;;;;;;13.00;8.55;;;;;;;19.63;31.39;100560.38;5073501;28;20480;-72
2022/12/14 03:49:52;;;;;;;10.93;7.95;;;;;;;19.64;31.19;100562.84;5074711;28;20519;-72
2022/12/14 03:52:32;;;;;;;10.90;8.25;;;;;;;19.57;31.30;100557.47;5070811;28;20413;-72
2022/12/14 03:55:07;;;;;;;11.10;8.25;;;;;;;19.60;31.43;100551.00;5072786;28;20036;-72
2022/12/14 03:58:04;;;;;;;11.77;8.23;;;;;;;19.62;31.26;100551.63;5072377;28;20147;-72
2022/12/14 04:00:39;;;;;;;12.00;8.23;;;;;;;19.67;31.12;100553.72;5067654;28;20040;-72
2022/12/14 04:03:18;;;;;;;10.90;7.55;;;;;;;19.73;31.05;100545.03;5076222;28;20031;-72
2022/12/14 04:05:50;;;;;;;13.52;8.40;;;;;;;19.88;31.10;100530.78;5073516;28;20054;-71
2022/12/14 04:09:02;;;;;;;11.55;7.30;;;;;;;19.97;30.81;100535.97;5073557;28;20035;-72
2022/12/14 04:20:15;;;;;;;11.43;7.75;;;;;;;19.91;31.01;100526.94;5068251;28;19973;-72
2022/12/14 04:22:48;;;;;;;10.63;7.63;;;;;;;19.90;30.99;100515.56;5072649;28;20062;-72
2022/12/14 04:31:08;;;;;;;10.23;8.43;;;;;;;19.88;30.83;100498.25;5065133;28;20037;-72
2022/12/14 04:33:48;;;;;;;9.88;7.65;;;;;;;19.87;30.74;100508.00;5071074;28;20481;-72
2022/12/14 04:36:36;;;;;;;12.13;7.78;;;;;;;19.80;31.01;100501.84;5070651;28;20043;-72
2022/12/14 04:39:10;;;;;;;11.23;7.93;;;;;;;19.79;30.88;100509.97;5070880;28;20080;-72
2022/12/14 04:41:41;;;;;;;14.25;7.90;;;;;;;19.77;30.85;100504.06;5083430;28;20539;-72
2022/12/14 04:44:30;;;;;;;10.23;7.78;;;;;;;19.81;30.86;100516.69;5071781;28;20651;-72
2022/12/14 04:46:58;;;;;;;10.90;7.43;;;;;;;19.74;30.98;100512.31;5064862;28;20489;-72
2022/12/14 04:49:36;;;;;;;11.45;7.00;;;;;;;19.78;30.85;100508.34;5069921;28;20046;-72
2022/12/14 04:52:10;;;;;;;10.40;7.88;;;;;;;19.71;30.95;100502.13;5071048;28;20127;-72
2022/12/14 04:54:48;;;;;;;10.30;7.53;;;;;;;19.56;30.99;100489.78;5077459;28;20044;-72
2022/12/14 04:57:20;;;;;;;10.20;8.65;;;;;;;19.71;31.00;100496.84;5079268;28;20139;-72
2022/12/14 04:59:47;;;;;;;11.52;8.40;;;;;;;19.71;30.89;100494.22;5078139;28;20078;-72
2022/12/14 05:02:15;;;;;;;12.55;8.15;;;;;;;19.60;31.10;100495.53;5076551;28;20051;-72
2022/12/14 05:05:01;;;;;;;12.13;8.10;;;;;;;19.64;31.21;100491.50;5077829;28;20044;-72
2022/12/14 05:07:38;;;;;;;11.60;7.88;;;;;;;19.60;31.05;100488.44;5074270;28;20050;-72
2022/12/14 05:10:17;;;;;;;10.98;7.97;;;;;;;19.65;31.04;100476.47;5072527;28;20048;-72
2022/12/14 05:12:56;;;;;;;10.82;7.80;;;;;;;19.58;31.04;100485.16;5075024;28;20065;-71
2022/12/14 05:15:47;;;;;;;11.77;7.97;;;;;;;19.59;31.04;100484.16;5072539;28;20036;-72
2022/12/14 05:18:13;;;;;;;11.10;8.00;;;;;;;19.61;31.02;100479.50;5072524;28;20500;-70
2022/12/14 05:20:38;;;;;;;11.55;8.68;;;;;;;19.52;31.14;100483.22;5069941;28;20036;-71
2022/12/14 05:23:04;;;;;;;10.98;8.32;;;;;;;19.55;31.12;100487.31;5070801;28;20130;-72
2022/12/14 05:25:29;;;;;;;14.88;8.98;;;;;;;19.53;31.17;100482.19;5076179;28;20052;-72
2022/12/14 05:27:55;;;;;;;12.85;8.30;;;;;;;19.56;31.04;100476.56;5083972;28;20019;-72
2022/12/14 05:30:24;;;;;;;10.98;7.55;;;;;;;19.48;31.09;100475.84;5074318;28;20478;-72
2022/12/14 05:32:49;;;;;;;10.75;7.70;;;;;;;19.49;31.12;100475.66;5077703;28;20062;-71
2022/12/14 05:35:15;;;;;;;11.55;7.70;;;;;;;19.51;31.21;100470.19;5077750;28;20462;-72
2022/12/14 05:37:41;;;;;;;11.23;7.85;;;;;;;19.47;30.95;100464.47;5075035;28;20032;-71
2022/12/14 05:40:08;;;;;;;11.25;8.18;;;;;;;19.46;31.12;100469.94;5075042;28;20714;-72
2022/12/14 05:42:33;;;;;;;11.65;8.52;;;;;;;19.48;31.13;100460.81;5073751;28;20036;-72
2022/12/14 05:44:59;;;;;;;11.82;8.43;;;;;;;19.48;30.95;100466.09;5075615;28;20032;-72
2022/12/14 05:47:26;;;;;;;12.73;8.27;;;;;;;19.43;31.06;100463.22;5075917;28;20423;-71
2022/12/14 05:49:51;;;;;;;12.50;8.48;;;;;;;19.49;31.09;100459.00;5078339;28;20097;-72
2022/12/14 05:52:17;;;;;;;12.50;7.70;;;;;;;19.47;31.08;100453.91;5081490;28;20819;-71
2022/12/14 05:54:43;;;;;;;11.57;8.20;;;;;;;19.43;31.03;100451.84;5074050;28;20086;-71
2022/12/14 05:57:09;;;;;;;11.77;7.78;;;;;;;19.45;31.04;100452.47;5078183;28;20032;-72
2022/12/14 05:59:34;;;;;;;10.98;7.55;;;;;;;19.36;31.08;100448.28;5073274;28;20051;-72
2022/12/14 06:02:00;;;;;;;10.90;7.78;;;;;;;19.51;30.93;100449.06;5072548;28;20045;-72
2022/12/14 06:04:25;;;;;;;10.75;7.82;;;;;;;19.70;30.67;100445.03;5074440;28;20044;-71
2022/12/14 06:06:51;;;;;;;11.15;7.72;;;;;;;19.73;30.66;100440.19;5072284;28;20490;-71
2022/12/14 06:09:17;;;;;;;12.80;8.05;;;;;;;19.77;30.50;100444.09;5070884;28;20055;-72
2022/12/14 06:11:44;;;;;;;12.90;8.48;;;;;;;19.74;30.79;100438.34;5071907;28;20566;-72
2022/12/14 06:14:10;;;;;;;11.23;8.10;;;;;;;19.81;30.46;100444.53;5072517;28;20627;-72
2022/12/14 06:16:40;;;;;;;11.50;8.18;;;;;;;19.74;30.63;100436.53;5073802;28;20105;-72
2022/12/14 06:19:06;;;;;;;12.18;8.30;;;;;;;19.73;30.70;100442.00;5074055;28;20059;-72
2022/12/14 06:21:34;;;;;;;12.48;8.50;;;;;;;19.74;30.53;100443.63;5068427;28;20085;-72
2022/12/14 06:24:00;;;;;;;12.23;7.70;;;;;;;19.69;30.81;100436.28;5070248;28;21998;-71
2022/12/14 06:26:27;;;;;;;11.82;8.20;;;;;;;19.72;30.62;100432.44;5078230;28;20039;-71
2022/12/14 06:28:54;;;;;;;10.45;7.78;;;;;;;19.63;30.86;100433.59;5076299;28;20051;-71
2022/12/14 06:31:22;;;;;;;9.90;7.15;;;;;;;19.65;30.80;100436.84;5070676;28;20040;-71
2022/12/14 06:33:48;;;;;;;8.32;6.78;;;;;;;19.65;30.76;100435.03;5073084;28;20122;-72
2022/12/14 06:36:26;;;;;;;10.52;7.40;;;;;;;19.64;30.83;100430.75;5070523;28;20040;-72
2022/12/14 06:38:53;;;;;;;10.18;7.25;;;;;;;19.58;30.94;100426.22;5072224;28;21617;-71
2022/12/14 06:41:20;;;;;;;10.23;6.88;;;;;;;19.62;30.94;100440.69;5068610;28;20470;-72
2022/12/14 06:43:45;;;;;;;10.90;7.55;;;;;;;19.68;30.75;100432.00;5074523;28;20085;-71
2022/12/14 06:46:14;;;;;;;10.10;6.90;;;;;;;20.56;29.96;100435.22;5069871;28;20041;-72
2022/12/14 06:48:39;;;;;;;10.02;6.95;;;;;;;21.62;28.43;100428.56;5070034;28;20028;-72
2022/12/14 06:51:06;;;;;;;10.27;7.20;;;;;;;22.41;27.55;100427.78;5064754;28;20044;-71
2022/12/14 06:53:33;;;;;;;10.50;6.78;;;;;;;22.80;26.75;100418.94;5071972;28;20036;-71
2022/12/14 06:56:10;;;;;;;10.50;7.03;;;;;;;22.73;27.07;100416.31;5074488;28;21869;-72
2022/12/14 06:58:36;;;;;;;10.35;7.03;;;;;;;22.46;27.19;100420.88;5076715;28;20403;-71
2022/12/14 07:01:07;;;;;;;9.60;6.97;;;;;;;22.29;27.55;100422.31;5072359;28;20474;-72
2022/12/14 07:03:34;;;;;;;10.90;8.13;;;;;;;22.12;27.97;100429.06;5072621;28;20042;-71
2022/12/14 07:06:02;;;;;;;10.07;6.38;;;;;;;21.90;28.38;100429.22;5073529;28;20061;-72
2022/12/14 07:08:30;;;;;;;11.48;7.05;;;;;;;21.72;28.39;100431.63;5068921;28;20035;-72
2022/12/14 07:11:00;;;;;;;10.05;7.03;;;;;;;21.50;28.76;100425.69;5075456;28;20221;-71
2022/12/14 07:13:26;;;;;;;8.77;6.53;;;;;;;21.30;29.11;100422.16;5072311;28;20043;-71
2022/12/14 07:15:53;;;;;;;13.48;7.05;;;;;;;21.18;29.44;100419.22;5072081;28;20048;-71
2022/12/14 07:18:19;;;;;;;9.75;7.18;;;;;;;21.12;29.67;100420.03;5070854;28;20073;-71
2022/12/14 07:21:00;;;;;;;11.75;6.90;;;;;;;21.03;29.58;100414.09;5069268;28;20092;-69
2022/12/14 07:23:28;;;;;;;9.57;6.35;;;;;;;21.02;29.46;100409.81;5073714;28;20074;-69
2022/12/14 07:26:01;;;;;;;9.73;6.57;;;;;;;20.94;29.83;100417.91;5076899;28;20040;-69
2022/12/14 07:28:27;;;;;;;10.25;6.88;;;;;;;20.87;29.93;100424.19;5074511;28;20064;-69
2022/12/14 07:30:57;;;;;;;9.90;6.93;;;;;;;20.78;29.85;100418.22;5074575;28;20083;-69
2022/12/14 07:33:23;;;;;;;10.30;6.93;;;;;;;20.75;30.01;100424.75;5074169;28;20048;-70
2022/12/14 07:35:49;;;;;;;10.30;6.75;;;;;;;20.71;30.01;100423.50;5074894;28;20113;-69
2022/12/14 07:38:15;;;;;;;11.13;7.50;;;;;;;20.64;30.19;100421.81;5070821;28;20039;-69
2022/12/14 07:40:41;;;;;;;9.85;6.97;;;;;;;20.62;30.05;100426.47;5072422;28;20124;-69
2022/12/14 07:43:07;;;;;;;9.40;6.82;;;;;;;20.83;29.82;100415.84;5054459;28;20138;-69
2022/12/14 07:45:33;;;;;;;10.27;7.15;;;;;;;21.31;29.38;100416.66;5072416;28;20152;-69
2022/12/14 07:47:58;;;;;;;9.30;6.93;;;;;;;21.96;28.34;100422.28;5073305;28;20047;-69
2022/12/14 07:50:24;;;;;;;12.00;6.93;;;;;;;22.24;28.20;100414.13;5065837;28;20039;-69
2022/12/14 07:52:49;;;;;;;9.13;6.32;;;;;;;22.25;27.88;100418.41;5068866;28;20490;-69
2022/12/14 07:55:15;;;;;;;10.52;7.25;;;;;;;22.16;27.97;100417.00;5071007;28;20036;-70
2022/12/14 07:57:40;;;;;;;9.57;6.82;;;;;;;21.99;28.00;100416.56;5075749;28;20131;-69
2022/12/14 08:00:06;;;;;;;13.02;7.35;;;;;;;21.82;28.60;100415.34;5075713;28;20144;-69
2022/12/14 08:02:37;;;;;;;7.72;6.30;;;;;;;21.56;28.66;100413.47;5070114;28;20053;-69
2022/12/14 08:05:03;;;;;;;9.48;6.95;;;;;;;21.42;28.92;100402.03;5066112;28;20076;-69
2022/12/14 08:07:30;;;;;;;10.27;7.00;;;;;;;21.36;29.05;100413.41;5070896;28;20040;-69
2022/12/14 08:09:56;;;;;;;10.02;7.32;;;;;;;21.31;28.97;100415.84;5067756;28;20047;-69
2022/12/14 08:12:21;;;;;;;8.95;6.15;;;;;;;21.24;29.19;100415.00;5073421;28;20040;-69
2022/12/14 08:14:47;;;;;;;10.57;7.00;;;;;;;21.20;29.10;100422.53;5069891;28;20071;-69
2022/12/14 08:17:13;;;;;;;9.77;6.63;;;;;;;21.11;29.53;100413.09;5066805;28;20029;-69
2022/12/14 08:19:38;;;;;;;8.30;6.70;;;;;;;21.05;29.35;100409.41;5066308;28;20051;-68
2022/12/14 08:22:04;;;;;;;9.23;6.78;;;;;;;20.98;29.43;100410.38;5068131;28;20788;-69
2022/12/14 08:24:29;;;;;;;9.15;6.22;;;;;;;20.91;29.84;100410.38;5074934;28;20032;-69
2022/12/14 08:26:55;;;;;;;10.25;6.63;;;;;;;20.86;29.65;100411.97;5071922;28;20032;-69
2022/12/14 08:29:21;;;;;;;9.95;7.18;;;;;;;20.84;29.66;100406.06;5074799;28;20041;-69
2022/12/14 08:31:47;;;;;;;9.18;6.55;;;;;;;20.73;29.75;100408.25;5067936;28;20044;-69
2022/12/14 08:34:12;;;;;;;9.40;6.55;;;;;;;20.85;29.46;100408.53;5068773;28;20097;-70
2022/12/14 08:36:38;;;;;;;11.05;6.97;;;;;;;21.02;28.93;100411.66;5070818;28;20042;-70
2022/12/14 08:39:06;;;;;;;8.90;6.65;;;;;;;21.12;28.99;100402.31;5071578;28;20036;-69
2022/12/14 08:41:32;;;;;;;9.25;6.80;;;;;;;21.17;29.07;100385.81;5072356;28;20687;-68
2022/12/14 08:43:59;;;;;;;9.90;6.88;;;;;;;21.41;28.79;100408.34;5069307;28;20074;-70
2022/12/14 08:46:28;;;;;;;9.48;6.85;;;;;;;21.35;28.69;100404.66;5070281;28;20036;-69
2022/12/14 08:48:54;;;;;;;8.68;6.57;;;;;;;21.30;28.63;100406.28;5069747;28;20098;-69
2022/12/14 08:51:21;;;;;;;8.82;6.50;;;;;;;21.24;28.80;100402.59;5068618;28;20039;-69
2022/12/14 08:53:47;;;;;;;10.23;6.65;;;;;;;21.24;28.92;100401.75;5075625;28;20390;-69
2022/12/14 08:56:15;;;;;;;10.43;7.05;;;;;;;21.20;28.89;100396.03;5074360;28;20056;-69
2022/12/14 08:58:42;;;;;;;9.30;6.82;;;;;;;21.16;28.81;100400.06;5071998;28;20040;-69
2022/12/14 09:01:13;;;;;;;10.60;7.28;;;;;;;20.98;29.17;100411.22;5070988;28;20096;-72
2022/12/14 09:03:44;;;;;;;10.02;7.15;;;;;;;20.98;29.39;100407.75;5068317;28;20062;-72
2022/12/14 09:06:14;;;;;;;10.32;7.10;;;;;;;20.94;29.49;100402.03;5069224;28;20028;-71
2022/12/14 09:08:40;;;;;;;8.75;6.60;;;;;;;20.94;29.66;100403.88;5068924;28;20079;-72
2022/12/14 09:11:08;;;;;;;10.13;7.00;;;;;;;20.89;29.73;100411.59;5071936;28;20054;-72
2022/12/14 09:13:34;;;;;;;9.52;6.22;;;;;;;20.78;29.82;100407.66;5065147;28;20051;-71
2022/12/14 09:16:03;;;;;;;9.20;6.85;;;;;;;20.79;30.02;100412.75;5070774;28;20036;-73
2022/12/14 09:18:29;;;;;;;8.93;6.10;;;;;;;20.77;29.89;100406.84;5066105;28;20176;-71
2022/12/14 09:20:56;;;;;;;9.60;6.10;;;;;;;20.93;29.72;100404.88;5069713;28;20044;-72
2022/12/14 09:23:23;;;;;;;8.10;6.00;;;;;;;21.23;29.20;100410.72;5073171;28;20041;-71
2022/12/14 09:26:10;;;;;;;8.25;6.18;;;;;;;21.85;28.74;100413.09;5077688;28;20058;-72
2022/12/14 09:28:37;;;;;;;9.18;6.70;;;;;;;22.19;28.25;100411.28;5068661;28;20033;-73
2022/12/14 09:31:06;;;;;;;7.38;5.88;;;;;;;22.20;28.14;100403.13;5073850;28;20032;-72
2022/12/14 09:33:32;;;;;;;9.32;6.85;;;;;;;22.10;28.24;100400.09;5083067;28;20115;-72
2022/12/14 09:36:06;;;;;;;8.73;6.65;;;;;;;21.94;28.67;100408.44;5075409;28;20040;-72
2022/12/14 09:38:34;;;;;;;8.95;6.25;;;;;;;21.74;28.94;100402.31;5086486;28;20134;-72
2022/12/14 09:41:02;;;;;;;9.07;6.22;;;;;;;21.59;28.93;100407.78;5078524;28;20524;-72
2022/12/14 09:43:41;;;;;;;8.93;6.05;;;;;;;21.51;29.18;100407.94;5073960;28;20036;-71
2022/12/14 09:46:41;;;;;;;7.80;5.70;;;;;;;21.42;29.29;100408.16;5076063;28;20043;-72
2022/12/14 09:49:24;;;;;;;10.02;6.22;;;;;;;21.42;29.19;100416.09;5077246;28;20138;-72
2022/12/14 09:51:52;;;;;;;8.52;6.18;;;;;;;21.36;29.29;100413.41;5076178;28;20059;-72
2022/12/14 09:54:23;;;;;;;10.68;6.15;;;;;;;21.31;29.13;100406.06;5059594;28;20430;-72
2022/12/14 09:56:48;;;;;;;7.18;5.55;;;;;;;21.21;29.71;100400.31;5074157;28;20410;-72
2022/12/14 09:59:16;;;;;;;8.35;5.70;;;;;;;21.17;29.46;100399.06;5073982;28;20059;-72
2022/12/14 10:01:45;;;;;;;8.98;6.00;;;;;;;21.09;30.00;100399.25;5071488;28;20035;-72
2022/12/14 10:04:32;;;;;;;8.10;5.60;;;;;;;21.01;29.89;100394.94;5075811;28;20044;-72
2022/12/14 10:07:42;;;;;;;9.10;6.72;;;;;;;20.93;30.01;100394.28;5074754;28;20040;-71
2022/12/14 10:10:27;;;;;;;8.80;7.07;;;;;;;20.89;30.24;100393.88;5064052;28;20681;-71
2022/12/14 10:13:04;;;;;;;8.13;5.95;;;;;;;20.86;30.16;100378.41;5073438;28;20386;-72
2022/12/14 10:15:48;;;;;;;8.18;6.10;;;;;;;20.83;30.00;100381.44;5068837;28;20035;-72
2022/12/14 10:18:32;;;;;;;9.00;6.32;;;;;;;20.76;30.24;100380.56;5074718;28;20028;-72
2022/12/14 10:21:13;;;;;;;8.60;6.03;;;;;;;20.75;30.11;100381.59;5073141;28;20757;-72
2022/12/14 10:23:50;;;;;;;8.40;6.35;;;;;;;20.67;30.30;100372.00;5072436;28;20518;-72
2022/12/14 10:26:29;;;;;;;7.93;5.53;;;;;;;20.78;30.27;100371.41;5073182;28;20039;-71
2022/12/14 10:29:15;;;;;;;8.73;5.20;;;;;;;21.41;29.06;100372.06;5076207;28;20036;-72
2022/12/14 10:31:57;;;;;;;7.75;5.25;;;;;;;22.03;28.22;100373.53;5076332;28;20482;-72
2022/12/14 10:34:28;;;;;;;7.40;5.18;;;;;;;22.07;28.41;100373.16;5079597;28;20038;-72
2022/12/14 10:37:21;;;;;;;7.75;5.68;;;;;;;21.95;28.65;100371.09;5079594;28;20032;-72
2022/12/14 10:40:00;;;;;;;8.43;5.80;;;;;;;21.74;28.84;100373.16;5072446;28;20792;-72
2022/12/14 10:43:03;;;;;;;8.00;5.88;;;;;;;21.56;28.86;100371.91;5069441;28;20075;-72
2022/12/14 10:45:58;;;;;;;8.75;5.85;;;;;;;21.47;29.03;100373.09;5075151;28;20032;-72
2022/12/14 10:48:29;;;;;;;8.55;6.00;;;;;;;21.42;29.27;100375.53;5070701;28;20886;-72
2022/12/14 10:51:10;;;;;;;8.75;5.75;;;;;;;21.38;29.32;100380.44;5079846;28;20131;-72
2022/12/14 10:53:42;;;;;;;8.10;6.00;;;;;;;21.33;29.37;100380.19;5076309;28;20088;-72
2022/12/14 10:56:35;;;;;;;6.63;5.03;;;;;;;21.28;29.17;100372.03;5075448;28;20051;-72
2022/12/14 10:59:25;;;;;;;7.70;5.70;;;;;;;21.20;29.60;100361.63;5070353;28;22128;-72
2022/12/14 11:02:01;;;;;;;8.60;5.93;;;;;;;21.13;29.38;100366.88;5076273;28;20052;-72
2022/12/14 11:04:29;;;;;;;8.07;5.25;;;;;;;21.08;29.58;100363.19;5070795;28;20342;-72
2022/12/14 11:07:00;;;;;;;8.95;5.97;;;;;;;21.01;29.57;100365.84;5072974;28;20031;-72
2022/12/14 11:09:26;;;;;;;7.43;5.30;;;;;;;20.95;30.07;100361.31;5080665;28;20039;-72
2022/12/14 11:12:03;;;;;;;7.18;5.65;;;;;;;20.92;29.83;100363.53;5075694;28;20047;-72
2022/12/14 11:14:29;;;;;;;8.30;5.68;;;;;;;20.88;29.96;100364.97;5075168;28;20044;-73
2022/12/14 11:16:54;;;;;;;9.18;6.00;;;;;;;20.84;30.18;100350.50;5075877;28;20051;-73
2022/12/14 11:19:22;;;;;;;6.85;5.05;;;;;;;20.88;29.91;100352.53;5068406;28;20818;-72
2022/12/14 11:21:50;;;;;;;7.13;5.28;;;;;;;20.88;30.03;100355.19;5071475;28;20535;-72
2022/12/14 11:24:24;;;;;;;8.18;5.78;;;;;;;20.84;29.87;100353.16;5078374;28;20039;-72
2022/12/14 11:26:53;;;;;;;7.93;5.55;;;;;;;20.78;30.07;100344.97;5072970;28;20060;-72
2022/12/14 11:29:27;;;;;;;7.15;5.38;;;;;;;20.87;29.84;100356.22;5073898;28;20036;-72
2022/12/14 11:31:52;;;;;;;7.75;5.68;;;;;;;21.13;29.34;100358.94;5073748;28;20446;-72
2022/12/14 11:34:41;;;;;;;7.18;5.90;;;;;;;21.36;29.29;100355.13;5067660;28;20150;-72
2022/12/14 11:37:28;;;;;;;7.70;5.65;;;;;;;21.32;29.45;100352.09;5071778;28;20036;-73
2022/12/14 11:39:57;;;;;;;6.95;5.60;;;;;;;21.30;29.24;100356.75;5073727;28;20081;-72
2022/12/14 11:42:24;;;;;;;8.82;5.57;;;;;;;21.25;29.28;100351.25;5071071;28;20719;-73
2022/12/14 11:44:51;;;;;;;7.35;4.70;;;;;;;21.17;29.32;100338.16;5073318;28;20163;-72
2022/12/14 11:47:22;;;;;;;7.70;5.20;;;;;;;21.15;29.55;100347.31;5074724;28;20048;-72
2022/12/14 11:49:56;;;;;;;6.78;5.03;;;;;;;21.05;29.80;100347.72;5067834;28;20654;-72
2022/12/14 11:52:37;;;;;;;6.45;4.97;;;;;;;21.02;29.50;100345.47;5068831;28;20135;-72
2022/12/14 11:55:17;;;;;;;7.85;5.25;;;;;;;20.96;29.67;100340.97;5070105;28;20048;-73